MABK1: Cottonwood River, Below Marion

Data processed at Tue May 21 2019 21:50


All information presented herein is the property of the government of the United States of America and may be revised or deleted at any time without prior notice.
Dissemination of this information without the expressed written consent of the Public Affairs Office, Tulsa District U.S. Army Corps of Engineers is strictly prohibited.
These data are gathered electronically and, as presented, have not undergone any form of quality control. These data are not guaranteed to be valid or correct.
Go to home page.
Go to station list.
Go to home page.

Upstream stations:

Downstream station:
Previous Day
Next Day
Current Day
    
SHEF ID:       MABK1     N COTTONWOOD R BL MARION LK, KS
STATION TYPE:  
Regulating: Stage =    17.80, Flow =   ERROR

               PRECIP     STAGE  RIV-FLOW  BAT-LOAD
                   in        ft       cfs      volt
              Ccp-Rev   Ccp-Rev   Ccp-Rev   Ccp-Rev
(US/Central)
05/21 00:00      0.01      7.66       709     12.49
05/21 01:00      0.00      7.97       816     12.49
05/21 02:00      0.00      8.38       964     12.49
05/21 03:00      0.00      8.14       876     12.49
05/21 04:00      0.00      8.48      1002     12.49
05/21 05:00      0.27      9.06      1229     12.49
05/21 06:00      0.31      9.88      1576     12.49
05/21 07:00      0.49     11.03      2109     12.49
05/21 08:00      0.26     12.35      2783     12.49
05/21 09:00      0.11     13.57      3459     12.49
05/21 10:00      0.00     14.57      4050     12.57
05/21 11:00      0.00     15.27      4481     13.05
05/21 12:00      0.00     16.87      5521     13.37
05/21 13:00      0.00     17.63      ----     13.37
05/21 14:00      0.01     17.92      ----     13.05
05/21 15:00      0.01     18.04      ----     13.29
05/21 16:00      0.00     18.06      ----     13.29
05/21 17:00      0.00     18.05      ----     13.21
05/21 18:00      0.00     18.07      ----     13.05
05/21 19:00      0.00     18.21      ----     12.97
05/21 20:00      0.01     18.59      ----     12.89
05/21 21:00      0.00     18.94      ----     12.81
05/21 22:00      ----      ----      ----      ----
05/21 23:00      ----      ----      ----      ----